Hattiesburg, MS

10:54 PM CDT on April 26, 2017 (GMT -0500)
West Hattiesburg | | Change Station
Active Advisory: Severe Thunderstorm Watch

Elev 266 ft 31.31 °N, 89.36 °W | Updated 21 seconds ago

Overcast
Overcast
74.3 °F
Feels Like 72 °F
N
0.0
Wind Variable Wind from South
Gusts 1.3 mph

Today
High -- | Low -- °F
--% Chance of Precip.
Yesterday
High -- | Low -- °F
Precip. -- in
Pressure 29.66 in
Visibility 10.0 miles
Clouds Overcast 1400 ft
Heat Index 72 °F
Dew Point 72 °F
Humidity 92%
Rainfall 0.00 in
Snow Depth Not available.
6:16 AM 7:33 PM
New Moon, 1% visible
METAR KHBG 270253Z AUTO 16010G19KT 10SM OVC014 23/21 A2967 RMK AO2 SLP042 T02330206 50006
Pressure 29.66 in
Visibility 10.0 miles
Clouds Overcast 1400 ft
Heat Index 72 °F
Dew Point 72 °F
Humidity 92%
Rainfall 0.00 in
Snow Depth Not available.
6:16 AM 7:33 PM
New Moon, 1% visible
METAR KHBG 270253Z AUTO 16010G19KT 10SM OVC014 23/21 A2967 RMK AO2 SLP042 T02330206 50006

Get Your Daily Forecast Email!

Thanks for signing up!

Be on the lookout for a verification email in your inbox.

You'll start receiving severe weather alerts in your inbox..

×

10-Day Weather Forecast

Almanac

Astronomy

Apr. 26, 2017 Rise Set
Actual Time
Civil Twilight
Nautical Twilight
Astronomical Twilight
Moon
Length of Visible Light
Length of Day
Tomorrow will be .
, % of the Moon is Illuminated

Today's Extremes

State Highs State Lows

Community

WunderPhotos

WunderBlog® & News

Nearby

Air Quality

  Air Quality AQ Index Pollutant
Not available.

Snow Depth

Station Depth Elevation

Earthquake Activity

City Distance Mag. Time & Date
Minimum magnitude displayed is 2.5.

Coastal Water Temperatures

Place Temperature

Stations

Nearby Weather Stations

Station Location Temp. Windchill Dew Point Humidity Wind Precip. Elev Updated Type
                   

Watches & Warnings

Severe Thunderstorm Watch
Issued: 10:43 PM CDT Apr. 26, 2017 – National Weather Service

Severe Thunderstorm Watch 167 remains in effect until 200 am CDT
for the following locations


MS
. Mississippi counties included are

Adams Attala Choctaw
Claiborne Clarke Clay
Copiah Covington Forrest
Franklin Hinds Jasper
Jefferson Jefferson Davis Jones
Kemper Lamar Lauderdale
Lawrence Leake Lincoln
Lowndes Madison Marion
Montgomery Neshoba Newton
Noxubee Oktibbeha Rankin
Scott Simpson Smith
Webster Winston